Time;durP1;ratioP1;P1;durP2;ratioP2;P2;SDS_P1;SDS_P2;PMS_P1;PMS_P2;Temp;Humidity;BMP_temperature;BMP_pressure;BME280_temperature;BME280_humidity;BME280_pressure;Samples;Min_cycle;Max_cycle;Signal;HPM_P1;HPM_P2
2021/09/05 00:00:53;;;;;;;24.92;12.25;;;;;;;13.84;82.10;102049.66;5042714;28;20092;-69
2021/09/05 00:03:18;;;;;;;22.42;11.93;;;;;;;13.87;82.36;102057.47;5042920;28;20026;-70
2021/09/05 00:05:44;;;;;;;20.30;11.93;;;;;;;13.79;82.19;102056.91;5041685;28;20267;-70
2021/09/05 00:08:09;;;;;;;20.35;11.40;;;;;;;13.82;82.12;102047.13;5042106;28;20045;-70
2021/09/05 00:10:35;;;;;;;25.83;12.55;;;;;;;13.74;82.63;102059.66;5042615;28;20017;-70
2021/09/05 00:13:00;;;;;;;16.50;11.23;;;;;;;13.71;82.25;102065.03;5042861;28;20037;-70
2021/09/05 00:15:25;;;;;;;18.25;11.32;;;;;;;13.65;83.02;102059.13;5042421;28;20038;-70
2021/09/05 00:17:51;;;;;;;22.02;12.27;;;;;;;13.68;82.34;102061.66;5042890;28;20347;-70
2021/09/05 00:20:16;;;;;;;20.05;11.50;;;;;;;13.66;82.23;102067.00;5042495;28;20042;-70
2021/09/05 00:22:42;;;;;;;17.35;11.18;;;;;;;13.58;83.15;102066.38;5042410;28;20247;-70
2021/09/05 00:25:08;;;;;;;16.08;11.07;;;;;;;13.50;83.26;102063.13;5041263;28;20029;-70
2021/09/05 00:27:33;;;;;;;25.75;12.13;;;;;;;13.56;82.62;102055.03;5042098;28;20033;-70
2021/09/05 00:29:59;;;;;;;21.55;11.38;;;;;;;13.45;83.15;102060.66;5042591;28;20045;-70
2021/09/05 00:32:24;;;;;;;18.77;10.77;;;;;;;13.47;83.28;102057.97;5042214;28;20052;-70
2021/09/05 00:34:49;;;;;;;22.73;12.20;;;;;;;13.45;83.29;102052.78;5042374;28;20049;-70
2021/09/05 00:37:15;;;;;;;26.48;11.85;;;;;;;13.46;83.15;102054.47;5042033;28;20034;-70
2021/09/05 00:39:40;;;;;;;19.90;12.05;;;;;;;13.36;83.45;102050.44;5042293;28;20251;-70
2021/09/05 00:42:06;;;;;;;23.33;11.20;;;;;;;13.35;83.34;102049.59;5042470;28;20033;-70
2021/09/05 00:44:31;;;;;;;14.88;11.27;;;;;;;13.32;83.68;102054.09;5042052;28;20041;-69
2021/09/05 00:46:56;;;;;;;25.15;11.68;;;;;;;13.41;82.99;102048.53;5042056;28;20025;-70
2021/09/05 00:49:22;;;;;;;21.67;12.38;;;;;;;13.30;83.63;102055.84;5042023;28;20022;-70
2021/09/05 00:51:47;;;;;;;23.63;11.98;;;;;;;13.23;83.81;102056.06;5041883;28;20033;-70
2021/09/05 00:54:15;;;;;;;24.15;12.23;;;;;;;13.34;83.18;102055.75;5041876;28;20091;-69
2021/09/05 00:56:44;;;;;;;17.93;11.90;;;;;;;13.24;83.58;102056.91;5041868;28;20045;-69
2021/09/05 00:59:17;;;;;;;;;;;;;;;13.25;83.73;102059.50;5042581;28;20275;-69
2021/09/05 01:04:27;;;;;;;20.30;12.32;;;;;;;13.27;83.41;102062.09;1379613;26;20171;-79
2021/09/05 01:06:52;;;;;;;21.33;11.52;;;;;;;13.16;83.59;102056.31;5015994;28;20044;-79
2021/09/05 01:09:18;;;;;;;19.45;12.10;;;;;;;13.17;83.98;102063.28;5063487;28;20043;-79
2021/09/05 01:11:43;;;;;;;17.27;11.43;;;;;;;13.20;83.72;102063.19;5030776;28;20040;-79
2021/09/05 01:14:09;;;;;;;16.60;11.40;;;;;;;13.23;83.44;102063.97;5046059;28;20035;-79
2021/09/05 01:16:38;;;;;;;19.77;11.45;;;;;;;13.12;84.11;102071.34;5047060;28;20071;-79
2021/09/05 01:19:15;;;;;;;19.10;10.98;;;;;;;13.04;84.15;102068.97;5030567;28;20040;-79
2021/09/05 01:21:41;;;;;;;17.63;11.57;;;;;;;13.08;84.29;102067.09;5032216;28;20036;-79
2021/09/05 01:24:07;;;;;;;20.85;11.60;;;;;;;13.15;83.82;102063.38;5030335;28;20021;-81
2021/09/05 01:26:35;;;;;;;21.23;11.73;;;;;;;13.11;84.04;102063.50;5029878;28;20013;-80
2021/09/05 01:29:00;;;;;;;20.27;11.18;;;;;;;13.00;84.49;102064.69;5029850;28;20032;-80
2021/09/05 01:31:34;;;;;;;19.58;12.32;;;;;;;12.99;84.53;102068.25;5029921;28;20092;-80
2021/09/05 01:34:00;;;;;;;22.80;12.23;;;;;;;12.91;84.67;102066.75;5030008;28;20033;-80
2021/09/05 01:36:25;;;;;;;20.33;11.70;;;;;;;12.88;84.74;102070.34;5029595;28;20096;-79
2021/09/05 01:38:51;;;;;;;21.08;11.75;;;;;;;12.89;84.71;102068.56;5046444;28;20033;-79
2021/09/05 01:41:16;;;;;;;22.45;11.90;;;;;;;12.83;84.69;102072.25;5013016;28;20033;-79
2021/09/05 01:43:41;;;;;;;18.58;11.60;;;;;;;12.87;84.57;102072.09;5030249;28;20017;-79
2021/09/05 01:46:07;;;;;;;24.90;11.45;;;;;;;12.88;84.43;102075.59;5064083;28;20055;-79
2021/09/05 01:48:32;;;;;;;19.50;12.10;;;;;;;12.79;84.69;102076.72;5029699;28;20045;-79
2021/09/05 01:50:58;;;;;;;23.05;11.88;;;;;;;12.77;85.27;102077.66;5046586;28;20029;-79
2021/09/05 01:53:23;;;;;;;18.70;11.90;;;;;;;12.78;84.78;102068.88;5045563;28;20091;-79
2021/09/05 01:55:49;;;;;;;20.90;12.70;;;;;;;12.70;84.78;102065.63;5029536;28;20095;-79
2021/09/05 01:58:14;;;;;;;19.25;11.85;;;;;;;12.64;85.47;102067.56;5029381;28;20025;-79
2021/09/05 02:00:40;;;;;;;21.92;12.32;;;;;;;12.68;85.16;102063.06;5046455;28;20020;-81
2021/09/05 02:03:05;;;;;;;18.10;11.65;;;;;;;12.65;85.29;102071.03;5029189;28;20070;-80
2021/09/05 02:05:30;;;;;;;15.55;11.73;;;;;;;12.71;84.90;102073.47;5029495;28;20112;-79
2021/09/05 02:07:56;;;;;;;20.45;12.18;;;;;;;12.73;84.80;102079.53;5029859;28;20040;-79
2021/09/05 02:10:21;;;;;;;22.45;12.00;;;;;;;12.71;84.80;102083.13;5029688;28;20066;-80
2021/09/05 02:12:47;;;;;;;20.15;11.70;;;;;;;12.58;85.34;102087.88;5029530;28;20320;-80
2021/09/05 02:15:12;;;;;;;22.38;12.13;;;;;;;12.52;85.59;102086.31;5045693;28;20261;-79
2021/09/05 02:17:38;;;;;;;19.92;12.00;;;;;;;12.59;85.14;102084.38;5046411;28;20025;-79
2021/09/05 02:20:03;;;;;;;25.05;12.45;;;;;;;12.57;85.38;102096.66;5046161;28;20033;-79
2021/09/05 02:22:29;;;;;;;23.13;12.43;;;;;;;12.51;85.54;102091.59;5028765;28;20025;-80
2021/09/05 02:24:54;;;;;;;19.58;12.13;;;;;;;12.48;85.36;102098.66;5063782;28;20032;-79
2021/09/05 02:27:20;;;;;;;23.75;12.05;;;;;;;12.55;85.13;102098.47;5029059;28;20061;-81
2021/09/05 02:29:45;;;;;;;24.05;12.27;;;;;;;12.64;84.85;102101.72;5029689;28;20029;-79
2021/09/05 02:32:10;;;;;;;22.40;12.50;;;;;;;12.60;84.89;102101.84;5046001;28;20041;-82
2021/09/05 02:34:36;;;;;;;20.60;12.35;;;;;;;12.62;84.85;102105.28;5028848;28;20090;-82
2021/09/05 02:37:01;;;;;;;23.73;12.70;;;;;;;12.35;85.23;102106.91;5045924;28;20033;-81
2021/09/05 02:39:27;;;;;;;21.42;12.10;;;;;;;12.35;85.88;102105.19;5028640;28;20025;-81
2021/09/05 02:41:52;;;;;;;19.73;12.50;;;;;;;12.40;86.00;102094.53;5029312;28;20056;-81
2021/09/05 02:44:18;;;;;;;24.58;12.95;;;;;;;12.36;85.88;102096.38;5012274;28;20013;-81
2021/09/05 02:46:44;;;;;;;19.20;12.25;;;;;;;12.45;85.40;102095.25;5016236;28;20224;-81
2021/09/05 02:49:09;;;;;;;25.75;13.45;;;;;;;12.34;85.48;102094.72;5033609;28;20057;-81
2021/09/05 02:51:35;;;;;;;18.67;12.23;;;;;;;12.36;85.52;102093.75;5033105;28;20025;-80
2021/09/05 02:54:00;;;;;;;20.85;12.18;;;;;;;12.37;85.42;102095.50;5067622;28;20037;-81
2021/09/05 02:56:26;;;;;;;27.83;13.00;;;;;;;12.28;85.89;102093.97;5016476;28;20063;-80
2021/09/05 02:58:52;;;;;;;21.25;12.50;;;;;;;12.26;85.52;102094.91;5049566;28;20032;-80
2021/09/05 03:01:17;;;;;;;22.10;12.90;;;;;;;12.26;86.10;102093.16;5047321;28;20328;-82
2021/09/05 03:03:42;;;;;;;22.17;12.57;;;;;;;12.26;85.53;102097.53;5047345;28;20038;-81
2021/09/05 03:06:08;;;;;;;25.13;12.75;;;;;;;12.32;85.77;102088.63;5014243;28;20059;-81
2021/09/05 03:08:33;;;;;;;20.88;12.02;;;;;;;12.25;85.68;102093.19;5030134;28;20086;-81
2021/09/05 03:10:59;;;;;;;21.55;12.93;;;;;;;12.19;85.98;102090.75;5030576;28;20029;-81
2021/09/05 03:13:24;;;;;;;20.63;12.60;;;;;;;12.20;85.95;102095.06;5030015;28;20031;-81
2021/09/05 03:15:49;;;;;;;24.63;13.10;;;;;;;12.17;85.79;102085.53;5014184;28;20066;-81
2021/09/05 03:18:15;;;;;;;22.30;13.27;;;;;;;12.15;86.28;102084.72;5013218;28;20031;-81
2021/09/05 03:20:40;;;;;;;26.60;13.57;;;;;;;12.10;86.35;102091.84;5064803;28;20025;-82
2021/09/05 03:23:06;;;;;;;27.20;13.35;;;;;;;12.10;86.17;102078.72;5063821;28;20021;-81
2021/09/05 03:25:31;;;;;;;23.27;13.23;;;;;;;12.04;86.51;102085.00;5029926;28;20343;-81
2021/09/05 03:27:56;;;;;;;26.05;13.77;;;;;;;12.07;86.37;102086.69;5030145;28;20032;-82
2021/09/05 03:30:22;;;;;;;23.45;12.77;;;;;;;12.02;86.35;102093.81;5029540;28;20049;-82
2021/09/05 03:32:47;;;;;;;28.33;13.50;;;;;;;12.08;86.13;102086.63;5013620;28;20391;-81
2021/09/05 03:35:13;;;;;;;29.27;12.82;;;;;;;11.99;86.16;102092.13;5046240;28;20033;-82
2021/09/05 03:37:38;;;;;;;24.33;13.55;;;;;;;11.99;86.23;102092.13;5013722;28;20036;-81
2021/09/05 03:40:04;;;;;;;21.25;12.55;;;;;;;11.96;86.15;102093.97;5046361;28;20056;-81
2021/09/05 03:42:29;;;;;;;21.20;12.43;;;;;;;11.92;86.31;102093.19;5029713;28;20028;-80
2021/09/05 03:44:55;;;;;;;22.08;12.90;;;;;;;11.92;86.24;102084.47;5046312;28;20207;-81
2021/09/05 03:47:20;;;;;;;26.35;12.60;;;;;;;11.97;86.12;102083.44;5029416;28;20021;-81
2021/09/05 03:49:46;;;;;;;27.73;13.07;;;;;;;11.90;86.23;102081.88;5046345;28;20056;-81
2021/09/05 03:52:11;;;;;;;24.05;12.45;;;;;;;11.86;86.36;102080.19;5045675;28;20025;-81
2021/09/05 03:54:37;;;;;;;26.05;13.45;;;;;;;11.83;86.31;102082.91;5063718;28;20033;-80
2021/09/05 03:57:02;;;;;;;23.55;13.35;;;;;;;11.84;86.26;102080.25;5028755;28;20511;-80
2021/09/05 03:59:28;;;;;;;22.27;12.63;;;;;;;11.82;86.09;102089.03;5046014;28;20036;-81
2021/09/05 04:01:53;;;;;;;20.55;12.55;;;;;;;11.79;86.25;102087.38;5046229;28;20044;-81
2021/09/05 04:04:19;;;;;;;35.25;13.23;;;;;;;11.74;86.22;102088.41;5045071;28;20028;-81
2021/09/05 04:06:49;;;;;;;24.08;12.80;;;;;;;11.78;86.38;102084.78;5029515;28;20032;-81
2021/09/05 04:10:08;;;;;;;20.27;12.73;;;;;;;11.71;86.19;102081.44;5046440;28;20037;-81
2021/09/05 04:12:03;;;;;;;24.33;13.02;;;;;;;11.69;86.79;102091.13;5048965;28;20059;-81
2021/09/05 04:14:28;;;;;;;25.13;13.27;;;;;;;11.72;86.47;102086.66;5028990;28;20207;-81
2021/09/05 04:16:54;;;;;;;25.60;13.18;;;;;;;11.65;86.93;102086.88;5045819;28;20194;-81
2021/09/05 04:19:19;;;;;;;25.90;13.65;;;;;;;11.61;86.55;102088.72;5029044;28;20028;-81
2021/09/05 04:21:45;;;;;;;26.80;13.82;;;;;;;11.63;86.38;102084.28;5028276;28;20041;-81
2021/09/05 04:24:10;;;;;;;34.60;13.90;;;;;;;11.60;86.76;102086.13;5029429;28;20096;-80
2021/09/05 04:26:35;;;;;;;29.50;13.82;;;;;;;11.55;86.59;102085.38;5028657;28;20031;-81
2021/09/05 04:29:01;;;;;;;29.17;13.85;;;;;;;11.58;86.59;102085.28;5063505;28;20029;-80
2021/09/05 04:31:26;;;;;;;30.20;13.80;;;;;;;11.56;86.86;102090.56;5045222;28;20025;-81
2021/09/05 04:33:52;;;;;;;24.55;13.55;;;;;;;11.60;86.52;102081.72;5045567;28;20029;-81
2021/09/05 04:36:17;;;;;;;26.40;13.45;;;;;;;11.57;86.44;102079.19;5028536;28;20339;-81
2021/09/05 04:38:42;;;;;;;26.85;12.95;;;;;;;11.57;86.61;102083.56;5029049;28;20036;-81
2021/09/05 04:41:08;;;;;;;24.58;13.15;;;;;;;11.46;86.91;102081.19;5029001;28;20070;-81
2021/09/05 04:43:33;;;;;;;22.83;13.75;;;;;;;11.63;86.51;102080.81;5028345;28;20059;-81
2021/09/05 04:45:59;;;;;;;21.52;13.95;;;;;;;11.53;86.79;102091.53;5045658;28;20041;-81
2021/09/05 04:48:24;;;;;;;24.77;14.00;;;;;;;11.56;86.87;102090.56;5028250;28;20033;-81
2021/09/05 04:50:50;;;;;;;25.50;13.35;;;;;;;11.62;86.29;102095.66;5063300;28;20076;-81
2021/09/05 04:53:15;;;;;;;26.92;13.00;;;;;;;11.65;85.92;102103.47;5025346;28;20243;-81
2021/09/05 04:55:41;;;;;;;21.83;13.23;;;;;;;11.51;86.66;102100.31;5042201;28;20044;-81
2021/09/05 04:58:06;;;;;;;27.33;14.07;;;;;;;11.63;86.41;102101.78;5026892;28;20052;-81
2021/09/05 05:00:32;;;;;;;28.50;14.25;;;;;;;11.53;86.84;102107.28;5026302;28;20086;-81
2021/09/05 05:02:59;;;;;;;26.13;14.32;;;;;;;11.40;87.20;102102.34;5042868;28;20055;-81
2021/09/05 05:05:25;;;;;;;23.33;13.77;;;;;;;11.45;86.50;102097.84;5010003;28;20094;-81
2021/09/05 05:07:50;;;;;;;27.65;14.25;;;;;;;11.30;87.24;102101.72;5026880;28;20041;-80
2021/09/05 05:10:15;;;;;;;30.48;14.25;;;;;;;11.34;87.10;102112.06;5042312;28;20044;-81
2021/09/05 05:12:41;;;;;;;27.83;14.52;;;;;;;11.30;87.24;102115.69;5009645;28;20043;-81
2021/09/05 05:15:07;;;;;;;31.13;13.95;;;;;;;11.33;86.90;102114.72;5042724;28;20036;-81
2021/09/05 05:17:33;;;;;;;25.83;14.05;;;;;;;11.61;86.08;102130.69;5025752;28;20063;-81
2021/09/05 05:19:58;;;;;;;25.45;13.60;;;;;;;11.69;85.68;102117.38;5026350;28;20075;-81
2021/09/05 05:22:24;;;;;;;28.38;14.40;;;;;;;11.52;86.16;102123.91;5025568;28;20362;-81
2021/09/05 05:24:49;;;;;;;26.08;13.73;;;;;;;11.45;86.72;102124.09;5026161;28;20029;-81
2021/09/05 05:27:15;;;;;;;23.85;14.30;;;;;;;11.73;85.72;102121.63;5059531;28;20029;-81
2021/09/05 05:29:40;;;;;;;25.98;13.48;;;;;;;12.05;84.37;102131.34;5042720;28;20036;-81
2021/09/05 05:32:06;;;;;;;23.60;12.27;;;;;;;12.60;82.72;102120.22;5060138;28;20342;-81
2021/09/05 05:34:31;;;;;;;20.02;12.38;;;;;;;12.78;81.38;102129.34;5008768;28;20143;-81
2021/09/05 05:37:01;;;;;;;20.88;12.57;;;;;;;12.94;80.29;102133.25;5025832;28;20232;-80
2021/09/05 05:39:27;;;;;;;19.02;12.00;;;;;;;13.20;80.30;102134.22;5025761;28;20205;-80
2021/09/05 05:41:52;;;;;;;19.80;11.80;;;;;;;13.36;79.07;102129.38;5025963;28;20201;-80
2021/09/05 05:44:18;;;;;;;18.17;11.63;;;;;;;13.60;78.13;102132.97;5008852;28;20039;-80
2021/09/05 05:46:43;;;;;;;16.42;10.90;;;;;;;13.59;77.51;102126.00;5059933;28;20280;-80
2021/09/05 05:49:08;;;;;;;19.73;11.77;;;;;;;13.97;75.79;102139.63;5008860;28;20024;-80
2021/09/05 05:51:34;;;;;;;19.00;11.73;;;;;;;14.26;75.85;102148.31;5041922;28;20199;-82
2021/09/05 05:53:59;;;;;;;16.25;10.75;;;;;;;14.63;74.24;102145.25;5042424;28;20359;-81
2021/09/05 05:56:25;;;;;;;20.90;11.23;;;;;;;14.47;73.35;102144.06;5041360;28;20351;-79
2021/09/05 05:58:50;;;;;;;21.77;10.55;;;;;;;15.00;72.44;102145.63;5042346;28;20350;-79
2021/09/05 06:01:16;;;;;;;21.55;11.07;;;;;;;14.90;71.75;102139.88;5008603;28;20032;-81
2021/09/05 06:03:41;;;;;;;18.48;10.82;;;;;;;15.74;70.02;102152.34;5008926;28;20031;-82
2021/09/05 06:06:06;;;;;;;21.33;10.90;;;;;;;16.05;68.17;102153.72;5008661;28;20282;-82
2021/09/05 06:08:33;;;;;;;17.63;10.50;;;;;;;15.80;68.02;102156.53;5041426;28;20060;-81
2021/09/05 06:10:58;;;;;;;15.82;10.43;;;;;;;15.96;67.98;102143.53;5042115;28;20104;-80
2021/09/05 06:13:23;;;;;;;17.50;11.00;;;;;;;15.85;68.32;102151.91;5041385;28;20033;-81
2021/09/05 06:15:49;;;;;;;20.90;11.35;;;;;;;16.40;67.26;102156.59;5041534;28;20052;-80
2021/09/05 06:18:14;;;;;;;15.60;9.80;;;;;;;16.66;65.98;102162.50;5008613;28;20032;-80
2021/09/05 06:20:40;;;;;;;16.98;10.20;;;;;;;16.91;65.97;102164.06;5041366;28;20028;-81
2021/09/05 06:23:05;;;;;;;20.58;10.80;;;;;;;17.44;63.83;102156.22;5025440;28;20036;-81
2021/09/05 06:25:31;;;;;;;16.15;9.77;;;;;;;17.42;64.00;102165.16;5024929;28;20033;-80
2021/09/05 06:27:56;;;;;;;16.98;10.63;;;;;;;17.50;63.06;102164.78;5025124;28;20036;-80
2021/09/05 06:30:21;;;;;;;16.20;10.88;;;;;;;17.58;62.66;102170.59;5024939;28;20037;-82
2021/09/05 06:32:47;;;;;;;16.60;9.93;;;;;;;16.98;63.94;102163.69;5006783;28;20270;-80
2021/09/05 06:35:12;;;;;;;19.73;11.00;;;;;;;17.13;63.11;102163.91;5040487;28;20035;-80
2021/09/05 06:37:37;;;;;;;16.58;10.38;;;;;;;16.55;65.34;102170.91;5024438;28;20271;-81
2021/09/05 06:40:03;;;;;;;16.60;10.65;;;;;;;17.69;62.59;102172.69;5041539;28;20037;-80
2021/09/05 06:42:29;;;;;;;16.35;10.35;;;;;;;16.78;64.64;102169.88;5040754;28;20849;-80
2021/09/05 06:44:54;;;;;;;18.15;11.07;;;;;;;17.49;62.89;102176.31;5008860;28;20021;-83
2021/09/05 06:47:20;;;;;;;22.05;11.05;;;;;;;17.73;63.64;102179.56;5023801;28;20033;-82
2021/09/05 06:49:46;;;;;;;14.48;10.23;;;;;;;18.53;61.11;102186.94;5052808;28;20041;-81
2021/09/05 06:52:12;;;;;;;15.75;9.90;;;;;;;19.74;58.60;102178.59;5054554;28;20266;-80
2021/09/05 06:54:38;;;;;;;12.60;9.75;;;;;;;18.47;59.70;102184.63;5021636;28;20156;-80
2021/09/05 06:57:04;;;;;;;17.45;11.05;;;;;;;18.59;60.78;102186.66;5020087;28;20053;-80
2021/09/05 06:59:30;;;;;;;13.90;10.07;;;;;;;19.41;58.33;102186.66;5024247;28;20033;-80
2021/09/05 07:01:55;;;;;;;12.43;9.85;;;;;;;18.29;60.83;102182.94;5059046;28;20048;-80
2021/09/05 07:04:21;;;;;;;17.70;9.73;;;;;;;17.97;60.78;102191.63;5040544;28;20232;-80
2021/09/05 07:06:46;;;;;;;14.95;9.98;;;;;;;19.02;58.43;102193.25;5025111;28;20083;-80
2021/09/05 07:09:12;;;;;;;15.27;10.63;;;;;;;17.72;62.27;102196.38;5041144;28;20040;-81
2021/09/05 07:11:37;;;;;;;16.83;9.80;;;;;;;18.31;61.26;102197.84;5041458;28;20086;-81
2021/09/05 07:14:03;;;;;;;13.10;9.55;;;;;;;18.72;59.57;102192.16;5040795;28;20041;-80
2021/09/05 07:16:28;;;;;;;21.25;11.07;;;;;;;18.16;60.99;102194.19;5017546;28;20320;-84
2021/09/05 07:18:54;;;;;;;14.60;10.13;;;;;;;19.35;58.37;102191.34;5018287;28;20038;-84
2021/09/05 07:21:19;;;;;;;13.68;8.85;;;;;;;19.46;58.46;102196.06;5026677;28;20056;-84
2021/09/05 07:23:44;;;;;;;14.77;7.15;;;;;;;19.86;57.10;102192.97;5036037;28;20033;-83
2021/09/05 07:26:10;;;;;;;14.63;9.85;;;;;;;19.64;57.29;102196.81;5033753;28;20037;-83
2021/09/05 07:28:36;;;;;;;17.90;10.40;;;;;;;20.21;56.72;102195.31;5020642;28;20053;-83
2021/09/05 07:31:03;;;;;;;15.02;9.85;;;;;;;20.22;55.40;102197.03;5032248;28;20076;-84
2021/09/05 07:33:28;;;;;;;14.10;9.90;;;;;;;19.45;57.41;102196.19;5033374;28;20029;-83
2021/09/05 07:35:57;;;;;;;15.80;9.93;;;;;;;18.55;60.02;102197.50;5035789;28;20398;-83
2021/09/05 07:38:22;;;;;;;16.73;10.40;;;;;;;19.18;58.62;102202.94;5035150;28;20045;-83
2021/09/05 07:40:47;;;;;;;14.90;10.30;;;;;;;18.71;59.32;102197.53;5040298;28;20040;-83
2021/09/05 07:43:13;;;;;;;14.25;10.20;;;;;;;19.35;57.92;102204.66;5035228;28;20033;-83
2021/09/05 07:45:38;;;;;;;16.10;10.20;;;;;;;18.83;58.79;102201.34;5008659;28;20478;-83
2021/09/05 07:48:07;;;;;;;16.60;10.68;;;;;;;19.35;58.47;102207.28;5036759;28;20034;-83
2021/09/05 07:50:32;;;;;;;;;;;;;;;19.18;57.98;102210.06;5008396;28;20041;-84
2021/09/05 07:52:58;;;;;;;12.47;9.80;;;;;;;20.41;55.13;102216.28;5039332;28;19921;-83
2021/09/05 07:55:26;;;;;;;17.58;10.07;;;;;;;19.29;57.67;102223.59;5038430;28;20035;-84
2021/09/05 07:57:52;;;;;;;18.98;10.70;;;;;;;19.38;58.61;102228.38;5040028;28;20028;-83
2021/09/05 08:00:17;;;;;;;18.10;10.95;;;;;;;19.67;57.10;102225.88;5019482;28;20108;-83
2021/09/05 08:02:43;;;;;;;16.25;10.88;;;;;;;19.59;57.33;102230.75;5022969;28;20048;-83
2021/09/05 08:05:09;;;;;;;15.13;10.50;;;;;;;19.80;57.08;102233.19;5019005;28;20051;-83
2021/09/05 08:07:34;;;;;;;16.75;10.73;;;;;;;19.36;58.01;102224.13;5018247;28;20071;-83
2021/09/05 08:10:00;;;;;;;16.58;10.45;;;;;;;19.95;58.04;102221.66;5020763;28;20037;-83
2021/09/05 08:12:26;;;;;;;15.50;9.93;;;;;;;20.59;54.79;102226.72;5035182;28;20040;-83
2021/09/05 08:14:51;;;;;;;17.05;9.30;;;;;;;21.39;53.20;102230.63;5026935;28;20047;-83
2021/09/05 08:17:16;;;;;;;16.20;9.45;;;;;;;21.49;53.62;102228.22;5055109;28;20055;-80
2021/09/05 08:19:42;;;;;;;12.48;10.13;;;;;;;20.96;53.42;102237.81;5036560;28;20051;-80
2021/09/05 08:22:07;;;;;;;13.18;9.50;;;;;;;21.06;53.41;102230.94;5023904;28;20071;-81
2021/09/05 08:24:33;;;;;;;17.42;9.85;;;;;;;20.31;54.86;102231.91;5001580;28;20028;-80
2021/09/05 08:26:58;;;;;;;15.25;9.68;;;;;;;19.73;55.99;102238.00;5025154;28;20025;-83
2021/09/05 08:29:23;;;;;;;11.10;9.07;;;;;;;20.20;55.02;102242.34;5039976;28;20018;-81
2021/09/05 08:31:49;;;;;;;14.38;9.43;;;;;;;20.09;55.61;102239.47;5023921;28;20017;-83
2021/09/05 08:34:14;;;;;;;16.35;10.07;;;;;;;20.61;54.46;102238.16;5043946;28;20052;-83
2021/09/05 08:36:40;;;;;;;16.25;10.18;;;;;;;20.04;55.58;102241.53;5068443;28;20020;-81
2021/09/05 08:39:05;;;;;;;15.13;10.57;;;;;;;20.67;54.79;102251.13;5038206;28;20385;-81
2021/09/05 08:41:30;;;;;;;10.52;8.40;;;;;;;21.22;54.06;102241.50;5023631;28;20573;-83
2021/09/05 08:43:57;;;;;;;14.10;8.73;;;;;;;21.79;51.31;102246.69;5023283;28;20025;-81
2021/09/05 08:46:23;;;;;;;13.43;9.68;;;;;;;21.32;52.45;102247.06;5022311;28;20435;-82
2021/09/05 08:48:49;;;;;;;11.43;9.02;;;;;;;22.08;50.42;102246.53;5025429;28;20028;-83
2021/09/05 08:51:14;;;;;;;11.93;9.30;;;;;;;21.44;51.63;102247.13;5027391;28;20029;-81
2021/09/05 08:53:40;;;;;;;15.02;9.05;;;;;;;21.45;51.46;102256.03;5044690;28;20039;-81
2021/09/05 08:56:05;;;;;;;13.43;9.43;;;;;;;20.44;53.58;102269.28;5042343;28;20052;-83
2021/09/05 08:58:31;;;;;;;13.35;9.40;;;;;;;21.81;51.52;102259.91;5063024;28;20040;-81
2021/09/05 09:00:56;;;;;;;14.63;9.77;;;;;;;21.63;51.71;102259.34;5002371;28;20039;-81
2021/09/05 09:03:23;;;;;;;9.45;8.48;;;;;;;21.85;49.46;102256.94;5043218;28;20075;-81
2021/09/05 09:05:53;;;;;;;12.05;8.38;;;;;;;22.17;50.03;102255.75;5007814;28;20029;-83
2021/09/05 09:08:19;;;;;;;10.52;8.20;;;;;;;22.91;49.09;102248.88;5011511;28;20033;-80
2021/09/05 09:11:02;;;;;;;14.68;9.05;;;;;;;21.13;50.89;102258.91;5004433;28;20037;-80
2021/09/05 09:13:35;;;;;;;12.55;8.32;;;;;;;21.23;50.55;102248.53;5043000;28;20343;-80
2021/09/05 09:16:08;;;;;;;14.68;8.60;;;;;;;21.64;50.25;102248.53;5019322;28;20259;-80
2021/09/05 09:18:34;;;;;;;13.00;8.52;;;;;;;21.22;51.61;102252.16;5022960;28;20036;-82
2021/09/05 09:21:00;;;;;;;15.25;9.02;;;;;;;21.45;51.15;102256.03;5005096;28;20197;-81
2021/09/05 09:23:29;;;;;;;13.63;9.00;;;;;;;21.57;51.22;102249.06;5024112;28;20044;-81
2021/09/05 09:25:56;;;;;;;11.88;9.13;;;;;;;21.70;51.00;102257.09;5025831;28;20209;-82
2021/09/05 09:28:27;;;;;;;14.68;9.57;;;;;;;20.81;53.42;102259.13;5040995;28;20104;-82
2021/09/05 09:30:53;;;;;;;12.20;8.63;;;;;;;22.13;50.72;102251.59;5018471;28;20028;-84
2021/09/05 09:33:20;;;;;;;12.60;9.05;;;;;;;21.78;50.08;102244.97;5011845;28;20079;-84
2021/09/05 09:35:49;;;;;;;12.98;9.43;;;;;;;21.57;50.97;102244.56;5021822;28;20052;-83
2021/09/05 09:38:16;;;;;;;12.93;9.00;;;;;;;21.72;50.26;102242.72;5040169;28;20041;-84
2021/09/05 09:40:42;;;;;;;12.25;8.68;;;;;;;22.63;47.76;102244.63;5022499;28;20044;-85
2021/09/05 09:43:21;;;;;;;18.65;9.45;;;;;;;21.82;49.83;102245.63;5019904;28;20040;-84
2021/09/05 09:45:47;;;;;;;10.23;7.85;;;;;;;23.09;47.73;102233.38;5014259;28;20041;-84
2021/09/05 09:48:21;;;;;;;16.55;10.20;;;;;;;21.76;49.46;102243.38;5008150;28;20047;-82
2021/09/05 09:50:47;;;;;;;13.68;8.60;;;;;;;23.07;46.53;102246.00;5036864;28;20063;-83
2021/09/05 09:53:12;;;;;;;14.13;9.13;;;;;;;24.13;44.17;102245.38;5005881;28;20120;-83
2021/09/05 09:55:39;;;;;;;15.38;8.77;;;;;;;23.51;45.70;102252.59;5022565;28;20033;-84
2021/09/05 09:58:05;;;;;;;14.20;9.32;;;;;;;22.11;47.45;102258.84;5035107;28;20041;-83
2021/09/05 10:00:31;;;;;;;11.85;9.23;;;;;;;24.17;44.91;102262.06;5016630;28;20911;-83
2021/09/05 10:02:56;;;;;;;15.77;9.15;;;;;;;23.34;46.13;102253.00;5004106;28;20104;-84
2021/09/05 10:05:22;;;;;;;13.27;9.38;;;;;;;23.68;44.72;102251.34;5022307;28;20391;-84
2021/09/05 10:07:47;;;;;;;12.65;8.18;;;;;;;25.48;41.88;102252.66;5037160;28;20033;-84
2021/09/05 10:10:13;;;;;;;15.25;9.48;;;;;;;23.37;45.93;102252.75;5025312;28;20033;-83
2021/09/05 10:12:38;;;;;;;11.30;8.82;;;;;;;24.00;43.85;102256.16;5035670;28;20037;-84
2021/09/05 10:15:06;;;;;;;11.95;8.80;;;;;;;23.86;45.23;102254.50;5026625;28;20060;-85
2021/09/05 10:17:32;;;;;;;12.32;9.98;;;;;;;23.83;44.77;102245.84;5009569;28;20028;-85
2021/09/05 10:19:58;;;;;;;13.65;9.00;;;;;;;23.85;44.59;102249.28;5022636;28;20095;-85
2021/09/05 10:22:24;;;;;;;14.55;9.38;;;;;;;22.85;46.88;102249.31;4999329;28;20406;-85
2021/09/05 10:24:51;;;;;;;17.02;9.95;;;;;;;23.34;46.18;102243.16;5023782;28;20215;-85
2021/09/05 10:27:16;;;;;;;17.48;10.07;;;;;;;22.87;47.03;102251.88;5020247;28;20044;-85
2021/09/05 10:30:11;;;;;;;15.20;9.38;;;;;;;22.89;46.94;102244.63;5021275;28;20048;-85
2021/09/05 10:32:50;;;;;;;11.73;10.25;;;;;;;22.07;48.49;102249.34;5040521;28;20116;-85
2021/09/05 10:35:24;;;;;;;;;;;;;;;22.89;46.63;102241.94;5038063;28;20075;-85
2021/09/05 10:37:50;;;;;;;13.38;8.75;;;;;;;23.83;44.41;102245.84;5022874;28;19993;-85
2021/09/05 10:40:15;;;;;;;17.58;9.30;;;;;;;23.49;46.16;102237.66;4999930;28;20024;-85
2021/09/05 10:42:57;;;;;;;13.88;9.15;;;;;;;23.35;46.03;102241.31;5035158;28;20044;-85
2021/09/05 10:45:23;;;;;;;12.45;8.60;;;;;;;24.83;42.55;102247.09;5039871;28;20028;-85
2021/09/05 10:47:49;;;;;;;11.68;9.05;;;;;;;24.94;42.53;102248.06;5027485;28;20043;-85
2021/09/05 10:50:38;;;;;;;11.25;9.13;;;;;;;23.84;45.11;102244.91;5026116;28;20033;-85
2021/09/05 10:53:23;;;;;;;15.40;9.43;;;;;;;24.56;43.78;102251.94;5034626;28;20037;-85
2021/09/05 10:56:11;;;;;;;12.35;8.18;;;;;;;25.14;42.70;102244.66;5013859;28;20033;-86
2021/09/05 10:58:55;;;;;;;13.57;8.25;;;;;;;23.36;45.63;102243.91;5026003;28;20037;-84
2021/09/05 11:01:29;;;;;;;9.20;7.68;;;;;;;23.52;44.15;102240.06;5045476;28;20044;-86
2021/09/05 11:04:10;;;;;;;12.05;8.60;;;;;;;22.48;46.40;102249.19;5040060;28;20027;-85
2021/09/05 11:06:56;;;;;;;16.27;8.77;;;;;;;23.44;45.52;102235.31;5058704;28;20122;-85
2021/09/05 11:09:24;;;;;;;15.90;9.40;;;;;;;22.35;48.15;102233.19;5043956;28;20089;-85
2021/09/05 11:12:03;;;;;;;11.65;8.68;;;;;;;22.13;49.04;102241.75;5054936;28;20032;-85